Terminal Aerodrome Forecast
Issued by NWS Quad Cities IA IL

Home | Current Version | Previous Version | Text Only | Print | Product List | Glossary On
Versions: 1 2 3 4 5 6 7 8 9 10 11 12 13 14 15 16 17 18
000
FTUS43 KDVN 041122
TAFMLI
TAF
KMLI 041122Z 0412/0512 VRB03KT P6SM SKC
      TEMPO 0412/0414 4SM BR
     FM041700 22006KT P6SM SCT250
     FM050900 16003KT 5SM BR SKC=

USA.gov is the U.S. government's official web portal to all federal, state and local government web resources and services.